createdAt,value
2022-11-01T00:02:23.426Z,100654.34
2022-11-01T00:04:51.379Z,100647.00
2022-11-01T00:07:19.300Z,100643.22
2022-11-01T00:09:47.327Z,100620.59
2022-11-01T00:12:16.587Z,100623.09
2022-11-01T00:14:44.439Z,100620.34
2022-11-01T00:17:12.387Z,100614.06
2022-11-01T00:19:40.276Z,100616.56
2022-11-01T00:22:08.415Z,100614.69
2022-11-01T00:24:36.307Z,100602.94
2022-11-01T00:27:04.278Z,100598.31
2022-11-01T00:29:33.473Z,100585.50
2022-11-01T00:32:01.385Z,100589.06
2022-11-01T00:34:29.286Z,100586.31
2022-11-01T00:36:57.150Z,100592.63
2022-11-01T00:39:30.372Z,100595.09
2022-11-01T00:41:59.624Z,100583.38
2022-11-01T00:44:27.526Z,100591.56
2022-11-01T00:46:56.793Z,100599.50
2022-11-01T00:49:24.674Z,100594.88
2022-11-01T00:51:53.312Z,100583.97
2022-11-01T00:54:21.301Z,100575.81
2022-11-01T00:56:49.160Z,100571.19
2022-11-01T00:59:17.082Z,100579.34
2022-11-01T01:01:45.316Z,100581.00
2022-11-01T01:04:14.666Z,100582.66
2022-11-01T01:06:42.590Z,100586.22
2022-11-01T01:09:11.463Z,100582.66
2022-11-01T01:11:39.306Z,100572.81
2022-11-01T01:14:07.172Z,100570.91
2022-11-01T01:16:35.027Z,100566.31
2022-11-01T01:19:03.516Z,100576.16
2022-11-01T01:21:32.791Z,100572.59
2022-11-01T01:24:00.765Z,100567.13
2022-11-01T01:26:28.577Z,100566.31
2022-11-01T01:28:56.468Z,100565.47
2022-11-01T01:31:24.696Z,100559.78
2022-11-01T01:33:52.586Z,100569.03
2022-11-01T01:36:20.525Z,100575.53
2022-11-01T01:38:52.239Z,100563.00
2022-11-01T01:41:37.841Z,100563.22
2022-11-01T01:44:38.922Z,100567.63
2022-11-01T01:47:06.791Z,100569.53
2022-11-01T01:49:36.502Z,100568.47
2022-11-01T01:52:08.099Z,100555.16
2022-11-01T01:54:37.386Z,100563.22
2022-11-01T01:57:05.336Z,100566.19
2022-11-01T01:59:33.197Z,100565.13
2022-11-01T02:02:01.489Z,100561.56
2022-11-01T02:04:33.104Z,100556.13
2022-11-01T02:07:01.073Z,100556.13
2022-11-01T02:09:30.910Z,100566.19
2022-11-01T02:12:01.074Z,100567.03
2022-11-01T02:14:28.909Z,100566.41
2022-11-01T02:16:59.253Z,100560.97
2022-11-01T02:19:54.710Z,100555.50
2022-11-01T02:22:25.481Z,100568.34
2022-11-01T02:25:10.865Z,100567.50
2022-11-01T02:27:52.962Z,100560.16
2022-11-01T02:30:20.975Z,100556.59
2022-11-01T02:32:55.449Z,100564.78
2022-11-01T02:35:25.698Z,100553.88
2022-11-01T02:37:54.816Z,100557.44
2022-11-01T02:40:27.885Z,100555.16
2022-11-01T02:42:58.430Z,100565.63
2022-11-01T02:49:18.820Z,100531.34
2022-11-01T02:51:46.672Z,100558.72
2022-11-01T02:54:20.739Z,100552.44
2022-11-01T02:56:48.644Z,100552.44
2022-11-01T02:59:19.138Z,100555.66
2022-11-01T03:01:48.761Z,100551.59
2022-11-01T03:04:18.037Z,100549.72
2022-11-01T03:06:48.439Z,100553.50
2022-11-01T03:09:16.411Z,100554.59
2022-11-01T03:11:47.613Z,100558.13
2022-11-01T03:14:19.114Z,100564.41
2022-11-01T03:16:49.668Z,100556.22
2022-11-01T03:19:30.349Z,100575.31
2022-11-01T03:22:00.920Z,100582.66
2022-11-01T03:24:29.500Z,100585.38
2022-11-01T03:27:01.630Z,100585.38
2022-11-01T03:29:30.536Z,100584.56
2022-11-01T03:31:58.380Z,100590.81
2022-11-01T03:34:27.641Z,100585.03
2022-11-01T03:36:58.380Z,100591.91
2022-11-01T03:39:27.389Z,100576.50
2022-11-01T03:41:59.789Z,100593.81
2022-11-01T03:44:27.660Z,100594.66
2022-11-01T03:46:55.513Z,100596.53
2022-11-01T03:49:23.363Z,100599.25
2022-11-01T03:51:53.010Z,100600.09
2022-11-01T03:54:20.882Z,100600.31
2022-11-01T03:56:48.814Z,100612.06
2022-11-01T03:59:16.928Z,100611.00
2022-11-01T04:01:45.241Z,100621.06
2022-11-01T04:04:13.267Z,100614.78
2022-11-01T04:06:41.149Z,100613.13
2022-11-01T04:09:10.852Z,100627.56
2022-11-01T04:11:39.018Z,100629.25
2022-11-01T04:14:24.145Z,100622.13
2022-11-01T04:17:08.661Z,100636.59
2022-11-01T04:19:54.077Z,100630.53
2022-11-01T04:22:24.488Z,100641.19
2022-11-01T04:24:53.998Z,100644.75
2022-11-01T04:27:21.941Z,100650.22
2022-11-01T04:29:49.766Z,100650.22
2022-11-01T04:32:17.905Z,100657.31
2022-11-01T04:34:45.798Z,100659.22
2022-11-01T04:37:13.859Z,100661.94
2022-11-01T04:39:41.747Z,100666.56
2022-11-01T04:42:11.026Z,100669.28
2022-11-01T04:44:38.892Z,100672.84
2022-11-01T04:47:06.848Z,100677.25
2022-11-01T04:49:34.785Z,100679.97
2022-11-01T04:52:02.919Z,100681.03
2022-11-01T04:54:33.490Z,100690.03
2022-11-01T04:57:01.547Z,100687.31
2022-11-01T04:59:30.803Z,100696.31
2022-11-01T05:01:59.003Z,100697.13
2022-11-01T05:04:26.925Z,100705.31
2022-11-01T05:06:54.793Z,100707.22
2022-11-01T05:09:22.693Z,100703.41
2022-11-01T05:11:50.585Z,100708.03
2022-11-01T05:14:18.451Z,100713.47
2022-11-01T05:16:47.702Z,100714.31
2022-11-01T05:19:16.524Z,100717.03
2022-11-01T05:21:44.694Z,100720.59
2022-11-01T05:24:12.571Z,100717.88
2022-11-01T05:26:40.447Z,100721.44
2022-11-01T05:29:13.345Z,100721.66
2022-11-01T05:31:53.596Z,100727.94
2022-11-01T05:34:21.482Z,100738.84
2022-11-01T05:36:49.312Z,100741.56
2022-11-01T05:39:17.214Z,100758.75
2022-11-01T05:41:45.317Z,100756.88
2022-11-01T05:44:13.160Z,100758.75
2022-11-01T05:46:41.061Z,100772.66
2022-11-01T05:49:10.353Z,100766.94
2022-11-01T05:51:39.184Z,100770.50
2022-11-01T05:54:07.387Z,100777.00
2022-11-01T05:56:35.269Z,100777.84
2022-11-01T05:59:03.300Z,100779.72
2022-11-01T06:01:31.532Z,100789.78
2022-11-01T06:04:01.849Z,100780.56
2022-11-01T06:06:31.361Z,100800.69
2022-11-01T06:09:00.000Z,100797.19
2022-11-01T06:11:28.224Z,100806.16
2022-11-01T06:13:56.263Z,100807.00
2022-11-01T06:16:24.161Z,100814.34
2022-11-01T06:18:52.023Z,100822.50
2022-11-01T06:21:23.823Z,100834.25
2022-11-01T06:23:55.222Z,100835.34
2022-11-01T06:26:23.113Z,100836.97
2022-11-01T06:28:50.978Z,100851.69
2022-11-01T06:31:19.123Z,100857.13
2022-11-01T06:33:47.493Z,100868.84
2022-11-01T06:36:15.359Z,100859.63
2022-11-01T06:38:43.268Z,100883.31
2022-11-01T06:41:12.841Z,100894.22
2022-11-01T06:43:40.694Z,100902.38
2022-11-01T06:46:08.678Z,100903.47
2022-11-01T06:48:36.620Z,100910.81
2022-11-01T06:51:04.973Z,100914.38
2022-11-01T06:53:33.112Z,100929.91
2022-11-01T06:56:01.094Z,100924.44
2022-11-01T06:58:30.323Z,100946.25
2022-11-01T07:00:58.491Z,100955.28
2022-11-01T07:03:26.458Z,100959.88
2022-11-01T07:05:54.325Z,100957.16
2022-11-01T07:08:22.165Z,100960.94
2022-11-01T07:10:51.446Z,100963.66
2022-11-01T07:13:19.341Z,100981.69
2022-11-01T07:15:48.618Z,100985.47
2022-11-01T07:18:16.489Z,100989.25
2022-11-01T07:20:44.632Z,100994.47
2022-11-01T07:23:13.503Z,101002.88
2022-11-01T07:25:41.412Z,101003.72
2022-11-01T07:28:09.329Z,101002.88
2022-11-01T07:30:37.491Z,101008.31
2022-11-01T07:33:07.143Z,101023.00
2022-11-01T07:35:35.336Z,101018.41
2022-11-01T07:38:06.439Z,101025.72
2022-11-01T07:40:39.815Z,101030.13
2022-11-01T07:43:07.712Z,101050.06
2022-11-01T07:45:36.065Z,101047.53
2022-11-01T07:48:05.179Z,101055.50
2022-11-01T07:50:35.226Z,101061.78
2022-11-01T07:53:03.291Z,101066.41
2022-11-01T07:55:31.271Z,101061.78
2022-11-01T07:57:59.208Z,101057.41
2022-11-01T08:00:27.708Z,101061.78
2022-11-01T08:03:01.210Z,101062.00
2022-11-01T08:05:29.510Z,101067.47
2022-11-01T08:07:58.919Z,101067.47
2022-11-01T08:10:27.824Z,101071.03
2022-11-01T08:13:01.919Z,101088.22
2022-11-01T08:15:29.900Z,101083.81
2022-11-01T08:17:58.124Z,101087.38
2022-11-01T08:20:26.388Z,101089.25
2022-11-01T08:22:54.378Z,101092.00
2022-11-01T08:25:24.019Z,101092.84
2022-11-01T08:27:51.938Z,101091.16
2022-11-01T08:30:20.076Z,101092.00
2022-11-01T08:32:47.980Z,101089.25
2022-11-01T08:35:16.032Z,101088.44
2022-11-01T08:37:50.927Z,101093.88
2022-11-01T08:40:19.191Z,101107.72
2022-11-01T08:42:48.403Z,101098.50
2022-11-01T08:45:16.375Z,101103.09
2022-11-01T08:47:44.342Z,101106.66
2022-11-01T08:50:13.566Z,101119.47
2022-11-01T08:52:41.556Z,101120.53
2022-11-01T08:55:10.583Z,101122.19
2022-11-01T08:57:38.459Z,101120.53
2022-11-01T09:00:11.276Z,101134.97
2022-11-01T09:02:39.228Z,101137.72
2022-11-01T09:05:07.659Z,101141.28
2022-11-01T09:07:35.822Z,101137.72
2022-11-01T09:10:04.116Z,101158.25
2022-11-01T09:12:32.044Z,101146.72
2022-11-01T09:14:59.956Z,101145.88
2022-11-01T09:17:29.158Z,101153.00
2022-11-01T09:19:57.034Z,101155.75
2022-11-01T09:22:26.144Z,101156.56
2022-11-01T09:24:55.501Z,101161.19
2022-11-01T09:27:23.374Z,101168.31
2022-11-01T09:29:52.156Z,101162.25
2022-11-01T09:32:20.451Z,101164.75
2022-11-01T09:34:50.131Z,101171.03
2022-11-01T09:37:18.040Z,101169.38
2022-11-01T09:39:45.932Z,101155.16
2022-11-01T09:42:19.466Z,101151.56
2022-11-01T09:44:47.685Z,101161.19
2022-11-01T09:47:17.092Z,101156.78
2022-11-01T09:49:45.944Z,101165.81
2022-11-01T09:52:18.877Z,101150.78
2022-11-01T09:54:47.289Z,101164.16
2022-11-01T09:57:18.977Z,101176.69
2022-11-01T09:59:48.569Z,101167.69
2022-11-01T10:02:31.038Z,101175.88
2022-11-01T10:05:15.948Z,101177.78
2022-11-01T10:07:51.194Z,101177.78
2022-11-01T10:10:25.850Z,101176.94
2022-11-01T10:13:00.152Z,101185.13
2022-11-01T10:15:34.444Z,101185.97
2022-11-01T10:18:04.151Z,101184.28
2022-11-01T10:20:34.625Z,101192.47
2022-11-01T10:23:04.439Z,101179.69
2022-11-01T10:25:33.256Z,101187.22
2022-11-01T10:28:05.378Z,101182.63
2022-11-01T10:30:36.716Z,101168.59
2022-11-01T10:33:20.104Z,101186.78
2022-11-01T10:35:52.384Z,101195.78
2022-11-01T10:38:37.701Z,101189.50
2022-11-01T10:41:18.824Z,101191.16
2022-11-01T10:43:47.778Z,101187.59
2022-11-01T10:46:18.076Z,101194.94
2022-11-01T10:48:47.803Z,101184.97
2022-11-01T10:51:16.607Z,101203.97
2022-11-01T10:53:47.744Z,101184.03
2022-11-01T10:56:19.958Z,101190.34
2022-11-01T10:58:54.441Z,101190.34
2022-11-01T11:01:24.302Z,101185.72
2022-11-01T11:03:52.272Z,101181.31
2022-11-01T11:06:20.416Z,101191.16
2022-11-01T11:08:52.315Z,101184.88
2022-11-01T11:11:22.366Z,101182.16
2022-11-01T11:13:52.257Z,101179.44
2022-11-01T11:16:24.841Z,101184.03
2022-11-01T11:19:03.425Z,101183.00
2022-11-01T11:21:35.877Z,101181.94
2022-11-01T11:24:05.421Z,101176.28
2022-11-01T11:26:38.656Z,101180.91
2022-11-01T11:29:06.838Z,101175.44
2022-11-01T11:31:35.157Z,101171.91
2022-11-01T11:34:22.098Z,101171.03
2022-11-01T11:36:51.870Z,101176.50
2022-11-01T11:39:26.579Z,101186.38
2022-11-01T11:41:54.530Z,101188.22
2022-11-01T11:44:40.126Z,101180.06
2022-11-01T11:47:21.369Z,101194.53
2022-11-01T11:49:50.198Z,101186.34
2022-11-01T11:52:19.522Z,101183.63
2022-11-01T11:54:48.813Z,101189.06
2022-11-01T11:57:19.809Z,101195.16
2022-11-01T11:59:51.026Z,101188.88
2022-11-01T12:02:21.500Z,101189.69
2022-11-01T12:04:54.020Z,101189.44
2022-11-01T12:07:29.826Z,101191.97
2022-11-01T12:10:02.076Z,101193.84
2022-11-01T12:12:31.502Z,101186.50
2022-11-01T12:15:00.043Z,101184.41
2022-11-01T12:17:33.137Z,101187.13
2022-11-01T12:20:10.727Z,101187.94
2022-11-01T12:22:39.532Z,101187.94
2022-11-01T12:25:12.033Z,101187.75
2022-11-01T12:27:39.940Z,101115.09
2022-11-01T12:30:16.068Z,101190.06
2022-11-01T12:32:48.587Z,101204.47
2022-11-01T12:35:25.001Z,101194.41
2022-11-01T12:38:08.017Z,101179.72
2022-11-01T12:40:37.894Z,101193.34
2022-11-01T12:43:13.045Z,101180.78
2022-11-01T12:45:47.095Z,101198.59
2022-11-01T12:48:17.495Z,101174.78
2022-11-01T12:50:47.416Z,101190.41
2022-11-01T12:53:17.068Z,101188.53
2022-11-01T12:55:47.122Z,101184.75
2022-11-01T12:58:16.507Z,101189.13
2022-11-01T13:01:05.185Z,101189.13
2022-11-01T13:03:40.232Z,101186.41
2022-11-01T13:06:14.072Z,101188.91
2022-11-01T13:08:46.320Z,101187.03
2022-11-01T13:11:19.484Z,101188.69
2022-11-01T13:13:48.605Z,101177.78
2022-11-01T13:16:18.720Z,101185.13
2022-11-01T13:18:49.118Z,101190.38
2022-11-01T13:21:20.473Z,101186.81
2022-11-01T13:23:50.453Z,101190.38
2022-11-01T13:26:22.074Z,101187.84
2022-11-01T13:29:04.226Z,101191.22
2022-11-01T13:31:36.602Z,101180.13
2022-11-01T13:34:25.009Z,101194.75
2022-11-01T13:36:55.794Z,101194.75
2022-11-01T13:39:28.113Z,101189.06
2022-11-01T13:41:59.628Z,101190.97
2022-11-01T13:44:29.139Z,101180.88
2022-11-01T13:47:29.444Z,101175.66
2022-11-01T13:50:32.904Z,101177.31
2022-11-01T13:53:04.081Z,101170.81
2022-11-01T13:55:36.375Z,101176.28
2022-11-01T13:58:06.222Z,101177.94
2022-11-01T14:00:40.290Z,101174.38
2022-11-01T14:03:18.632Z,101169.78
2022-11-01T14:05:46.769Z,101168.94
2022-11-01T14:08:32.183Z,101165.38
2022-11-01T14:11:00.144Z,101160.97
2022-11-01T14:13:34.043Z,101159.91
2022-11-01T14:16:28.001Z,101170.00
2022-11-01T14:19:27.275Z,101176.28
2022-11-01T14:21:55.216Z,101181.09
2022-11-01T14:24:34.840Z,101170.03
2022-11-01T14:27:24.389Z,101177.31
2022-11-01T14:29:56.791Z,101181.94
2022-11-01T14:32:26.146Z,101174.59
2022-11-01T14:34:59.889Z,101182.78
2022-11-01T14:37:28.165Z,101195.38
2022-11-01T14:40:21.132Z,101188.88
2022-11-01T14:42:49.036Z,101176.06
2022-11-01T14:45:37.578Z,101178.78
2022-11-01T14:48:08.061Z,101189.44
2022-11-01T14:50:41.462Z,101193.03
2022-11-01T14:53:12.400Z,101193.84
2022-11-01T14:55:40.563Z,101190.28
2022-11-01T14:58:19.172Z,101194.69
2022-11-01T15:00:48.772Z,101191.97
2022-11-01T15:03:16.749Z,101198.25
2022-11-01T15:05:48.767Z,101197.22
2022-11-01T15:08:22.535Z,101203.50
2022-11-01T15:10:50.475Z,101195.53
2022-11-01T15:13:18.439Z,101207.28
2022-11-01T15:15:54.324Z,101207.06
2022-11-01T15:18:22.284Z,101210.63
2022-11-01T15:20:51.543Z,101216.09
2022-11-01T15:23:20.617Z,101213.34
2022-11-01T15:25:52.410Z,101209.63
2022-11-01T15:28:21.444Z,101220.69
2022-11-01T15:30:55.072Z,101156.78
2022-11-01T15:33:24.315Z,101220.50
2022-11-01T15:35:56.327Z,101216.97
2022-11-01T15:38:24.271Z,101221.53
2022-11-01T15:40:53.174Z,101221.31
2022-11-01T15:43:22.053Z,101220.50
2022-11-01T15:45:52.262Z,101218.59
2022-11-01T15:48:22.923Z,101223.00
2022-11-01T15:50:52.422Z,101218.38
2022-11-01T15:53:21.426Z,101226.56
2022-11-01T15:55:50.275Z,101220.28
2022-11-01T15:58:20.068Z,101220.06
2022-11-01T16:00:49.184Z,101214.59
2022-11-01T16:03:18.410Z,101228.25
2022-11-01T16:05:53.955Z,101217.34
2022-11-01T16:08:26.959Z,101218.16
2022-11-01T16:10:54.826Z,101215.44
2022-11-01T16:13:22.699Z,101223.63
2022-11-01T16:16:01.826Z,101216.50
2022-11-01T16:18:29.679Z,101217.34
2022-11-01T16:21:07.119Z,101222.56
2022-11-01T16:23:34.979Z,101211.25
2022-11-01T16:26:04.618Z,101216.50
2022-11-01T16:28:37.758Z,101219.00
2022-11-01T16:31:06.884Z,101230.75
2022-11-01T16:33:44.449Z,101225.31
2022-11-01T16:36:36.388Z,101230.75
2022-11-01T16:39:23.105Z,101238.94
2022-11-01T16:41:52.259Z,101238.09
2022-11-01T16:44:20.264Z,101251.75
2022-11-01T16:46:48.145Z,101245.19
2022-11-01T16:49:20.999Z,101253.38
2022-11-01T16:51:50.622Z,101256.13
2022-11-01T16:54:18.481Z,101256.13
2022-11-01T16:56:48.036Z,101254.22
2022-11-01T16:59:27.922Z,101245.19
2022-11-01T17:01:58.147Z,101255.91
2022-11-01T17:04:26.813Z,101250.91
2022-11-01T17:06:58.050Z,101258.63
2022-11-01T17:09:26.892Z,101251.50
2022-11-01T17:11:55.047Z,101265.97
2022-11-01T17:14:22.983Z,101266.81
2022-11-01T17:16:51.522Z,101267.66
2022-11-01T17:19:24.358Z,101259.47
2022-11-01T17:21:52.982Z,101257.78
2022-11-01T17:24:23.286Z,101272.28
2022-11-01T17:26:51.176Z,101266.81
2022-11-01T17:29:19.085Z,101273.94
2022-11-01T17:31:46.956Z,101274.78
2022-11-01T17:34:14.950Z,101270.38
2022-11-01T17:36:43.309Z,101274.78
2022-11-01T17:39:11.179Z,101269.53
2022-11-01T17:41:41.027Z,101273.09
2022-11-01T17:44:10.434Z,101274.78
2022-11-01T17:46:39.479Z,101275.00
2022-11-01T17:49:07.402Z,101269.53
2022-11-01T17:51:35.592Z,101270.38
2022-11-01T17:54:04.012Z,101270.38
2022-11-01T17:56:32.362Z,101275.00
2022-11-01T17:59:02.464Z,101269.31
2022-11-01T18:01:30.916Z,101270.38
2022-11-01T18:03:58.874Z,101276.66
2022-11-01T18:06:26.871Z,101269.31
2022-11-01T18:08:54.881Z,101269.53
2022-11-01T18:11:39.338Z,101265.97
2022-11-01T18:14:13.520Z,101258.47
2022-11-01T18:16:45.430Z,101243.63
2022-11-01T18:19:31.580Z,101276.47
2022-11-01T18:22:06.093Z,101183.88
2022-11-01T18:24:35.841Z,101273.94
2022-11-01T18:27:06.393Z,101268.50
2022-11-01T18:29:39.923Z,101266.59
2022-11-01T18:32:13.371Z,101268.28
2022-11-01T18:34:44.245Z,101263.69
2022-11-01T18:37:18.953Z,101118.72
2022-11-01T18:39:50.616Z,101265.97
2022-11-01T18:42:18.784Z,101271.22
2022-11-01T18:44:48.040Z,101271.00
2022-11-01T18:47:18.840Z,101256.34
2022-11-01T18:49:46.793Z,101269.13
2022-11-01T18:52:17.714Z,101263.66
2022-11-01T18:54:49.130Z,101267.19
2022-11-01T18:57:20.566Z,101264.47
2022-11-01T18:59:50.571Z,101270.75
2022-11-01T19:02:20.448Z,101273.47
2022-11-01T19:04:48.317Z,101270.75
2022-11-01T19:07:17.726Z,101264.47
2022-11-01T19:09:50.240Z,101278.09
2022-11-01T19:12:23.955Z,101268.03
2022-11-01T19:14:57.981Z,101269.91
2022-11-01T19:17:26.532Z,101265.31
2022-11-01T19:19:55.104Z,101259.84
2022-11-01T19:22:29.431Z,101261.75
2022-11-01T19:24:57.287Z,101270.75
2022-11-01T19:27:25.131Z,101270.75
2022-11-01T19:29:57.698Z,101265.31
2022-11-01T19:32:27.555Z,101260.69
2022-11-01T19:34:55.425Z,101257.97
2022-11-01T19:37:29.206Z,101261.53
2022-11-01T19:39:59.562Z,101250.81
2022-11-01T19:42:29.083Z,101226.81
2022-11-01T19:44:59.127Z,101247.72
2022-11-01T19:47:41.062Z,101248.72
2022-11-01T19:50:16.989Z,101250.63
2022-11-01T19:52:47.469Z,101247.66
2022-11-01T19:55:31.836Z,101256.91
2022-11-01T19:58:00.524Z,101255.84
2022-11-01T20:00:30.069Z,101245.78
2022-11-01T20:03:00.111Z,101250.41
2022-11-01T20:05:29.938Z,101253.13
2022-11-01T20:08:07.270Z,101249.78
2022-11-01T20:10:35.129Z,101258.38
2022-11-01T20:13:03.247Z,101259.22
2022-11-01T20:15:31.354Z,101247.47
2022-11-01T20:18:01.059Z,101251.81
2022-11-01T20:20:30.289Z,101251.81
2022-11-01T20:23:20.409Z,101251.81
2022-11-01T20:25:46.468Z,101249.09
2022-11-01T20:28:14.791Z,101260.84
2022-11-01T20:30:42.966Z,101245.31
2022-11-01T20:33:13.228Z,101252.66
2022-11-01T20:35:41.238Z,101249.94
2022-11-01T20:38:09.271Z,101253.50
2022-11-01T20:40:37.492Z,101255.41
2022-11-01T20:43:06.527Z,101248.28
2022-11-01T20:45:35.432Z,101243.88
2022-11-01T20:48:03.390Z,101247.66
2022-11-01T20:50:32.973Z,101259.41
2022-11-01T20:53:01.084Z,101254.81
2022-11-01T20:55:29.190Z,101258.78
2022-11-01T20:57:57.098Z,101260.25
2022-11-01T21:00:26.945Z,101261.31
2022-11-01T21:02:55.750Z,101139.59
2022-11-01T21:05:24.643Z,101266.56
2022-11-01T21:07:59.098Z,101252.06
2022-11-01T21:10:29.977Z,101247.47
2022-11-01T21:12:57.901Z,101250.78
2022-11-01T21:15:36.572Z,101249.09
2022-11-01T21:18:35.367Z,101261.09
2022-11-01T21:21:25.165Z,101258.59
2022-11-01T21:23:54.422Z,101258.78
2022-11-01T21:26:23.508Z,101257.97
2022-11-01T21:28:51.885Z,101261.31
2022-11-01T21:31:26.560Z,101255.22
2022-11-01T21:33:55.048Z,101260.47
2022-11-01T21:36:28.905Z,101265.09
2022-11-01T21:38:59.443Z,101260.69
2022-11-01T21:41:31.599Z,101257.13
2022-11-01T21:44:00.049Z,101250.63
2022-11-01T21:46:28.798Z,101255.03
2022-11-01T21:48:58.830Z,101252.28
2022-11-01T21:51:26.987Z,101245.78
2022-11-01T21:53:57.612Z,101249.34
2022-11-01T21:56:28.153Z,101243.88
2022-11-01T21:58:56.016Z,101242.00
2022-11-01T22:01:24.279Z,101242.22
2022-11-01T22:03:52.237Z,101244.72
2022-11-01T22:06:20.097Z,101245.56
2022-11-01T22:08:47.977Z,101239.47
2022-11-01T22:11:19.432Z,101237.38
2022-11-01T22:13:54.770Z,101233.81
2022-11-01T22:16:22.747Z,101236.53
2022-11-01T22:18:50.603Z,101231.94
2022-11-01T22:21:18.789Z,101232.72
2022-11-01T22:23:47.019Z,101235.47
2022-11-01T22:26:14.916Z,101233.81
2022-11-01T22:28:42.794Z,101220.19
2022-11-01T22:31:13.699Z,101220.19
2022-11-01T22:33:41.606Z,101226.69
2022-11-01T22:36:13.023Z,101197.63
2022-11-01T22:38:42.491Z,101214.09
2022-11-01T22:41:12.776Z,101209.69
2022-11-01T22:43:41.531Z,101212.41
2022-11-01T22:46:19.396Z,101063.59
2022-11-01T22:48:47.768Z,101203.41
2022-11-01T22:51:22.248Z,101187.75
2022-11-01T22:53:50.285Z,101199.84
2022-11-01T22:56:18.217Z,101195.69
2022-11-01T22:58:46.096Z,101183.94
2022-11-01T23:01:23.519Z,101194.84
2022-11-01T23:03:55.777Z,101201.34
2022-11-01T23:06:31.739Z,101193.16
2022-11-01T23:09:01.280Z,101182.25
2022-11-01T23:11:44.201Z,101189.59
2022-11-01T23:14:35.069Z,101181.88
2022-11-01T23:17:14.749Z,101182.72
2022-11-01T23:19:42.634Z,101184.59
2022-11-01T23:22:13.599Z,101184.59
2022-11-01T23:24:41.440Z,101181.03
2022-11-01T23:27:09.335Z,101191.72
2022-11-01T23:29:37.170Z,101196.56
2022-11-01T23:32:06.783Z,101198.25
2022-11-01T23:34:34.684Z,101187.53
2022-11-01T23:37:02.611Z,101181.88
2022-11-01T23:39:33.976Z,101182.09
2022-11-01T23:42:02.181Z,101187.53
2022-11-01T23:44:30.883Z,101181.50
2022-11-01T23:47:00.493Z,101169.56
2022-11-01T23:49:31.743Z,101182.31
2022-11-01T23:51:59.936Z,101175.38
2022-11-01T23:54:34.028Z,101172.44
2022-11-01T23:57:02.155Z,101166.16
2022-11-01T23:59:30.036Z,101157.13
